Time;durP1;ratioP1;P1;durP2;ratioP2;P2;SDS_P1;SDS_P2;PMS_P1;PMS_P2;Temp;Humidity;BMP_temperature;BMP_pressure;BME280_temperature;BME280_humidity;BME280_pressure;Samples;Min_cycle;Max_cycle;Signal;HPM_P1;HPM_P2
2021/04/10 00:01:56;;;;;;;5.43;3.50;;;;;;;8.67;100.00;101298.88;1735920;82;26331;-75
2021/04/10 00:04:27;;;;;;;4.27;3.10;;;;;;;8.65;100.00;101301.06;1735804;82;26255;-75
2021/04/10 00:06:57;;;;;;;5.90;3.93;;;;;;;8.64;100.00;101298.58;1735855;82;26255;-76
2021/04/10 00:09:27;;;;;;;5.03;3.10;;;;;;;8.50;100.00;101302.84;1736011;82;26278;-75
2021/04/10 00:11:57;;;;;;;3.50;3.10;;;;;;;8.36;100.00;101302.95;1735849;82;26262;-75
2021/04/10 00:14:28;;;;;;;4.77;3.43;;;;;;;8.53;100.00;101298.16;1735848;82;26255;-75
2021/04/10 00:16:57;;;;;;;6.50;3.37;;;;;;;8.24;100.00;101299.77;1736143;82;26458;-75
2021/04/10 00:19:27;;;;;;;5.83;3.33;;;;;;;8.23;100.00;101302.23;1735960;82;26271;-75
2021/04/10 00:21:57;;;;;;;7.87;3.50;;;;;;;8.40;100.00;101302.73;1735900;82;26329;-75
2021/04/10 00:24:27;;;;;;;5.43;3.30;;;;;;;8.22;100.00;101297.78;1735866;83;26314;-75
2021/04/10 00:26:57;;;;;;;6.03;3.60;;;;;;;8.45;100.00;101301.41;1735828;80;26389;-75
2021/04/10 00:29:26;;;;;;;6.13;3.17;;;;;;;8.41;100.00;101294.17;1735949;82;26267;-75
2021/04/10 00:31:56;;;;;;;6.23;3.20;;;;;;;8.24;100.00;101302.53;1735919;83;26259;-75
2021/04/10 00:34:26;;;;;;;7.90;3.23;;;;;;;8.19;100.00;101309.92;1735890;83;26259;-75
2021/04/10 00:36:56;;;;;;;6.10;3.57;;;;;;;8.18;100.00;101307.70;1736043;82;26336;-75
2021/04/10 00:39:26;;;;;;;7.07;3.70;;;;;;;8.18;100.00;101307.70;1735881;83;26666;-75
2021/04/10 00:41:56;;;;;;;8.47;3.27;;;;;;;8.17;100.00;101308.79;1735877;83;26259;-75
2021/04/10 00:44:26;;;;;;;6.13;3.90;;;;;;;8.06;100.00;101301.47;1735985;83;26407;-75
2021/04/10 00:46:55;;;;;;;5.77;3.07;;;;;;;7.90;100.00;101306.52;1736122;82;26265;-75
2021/04/10 00:49:25;;;;;;;7.03;3.60;;;;;;;7.92;100.00;101303.48;1736041;82;26714;-75
2021/04/10 00:51:55;;;;;;;6.47;3.70;;;;;;;8.01;100.00;101296.41;1735878;83;26254;-75
2021/04/10 00:54:26;;;;;;;8.47;3.90;;;;;;;7.86;100.00;101301.76;1735946;83;26255;-76
2021/04/10 00:56:56;;;;;;;5.80;3.40;;;;;;;7.81;100.00;101303.91;1736194;82;26782;-75
2021/04/10 00:59:26;;;;;;;6.23;3.67;;;;;;;7.83;100.00;101303.09;1736142;82;26267;-75
2021/04/10 01:01:56;;;;;;;6.53;3.87;;;;;;;7.77;100.00;101293.07;1736002;82;26271;-74
2021/04/10 01:04:25;;;;;;;5.43;3.20;;;;;;;7.93;100.00;101298.25;1735971;82;26254;-74
2021/04/10 01:06:55;;;;;;;6.77;3.43;;;;;;;7.82;100.00;101289.54;1736005;82;26322;-74
2021/04/10 01:09:25;;;;;;;7.70;4.10;;;;;;;7.70;100.00;101294.63;1736040;83;26259;-74
2021/04/10 01:12:04;;;;;;;4.77;3.27;;;;;;;7.65;100.00;101289.05;1735914;82;26710;-74
2021/04/10 01:14:39;;;;;;;6.93;3.70;;;;;;;7.91;100.00;101292.16;1735935;82;26289;-74
2021/04/10 01:17:12;;;;;;;4.33;3.30;;;;;;;7.93;100.00;101288.56;1735979;82;26270;-74
2021/04/10 01:20:02;;;;;;;6.37;3.80;;;;;;;7.84;100.00;101288.72;1735973;83;26434;-74
2021/04/10 01:22:48;;;;;;;7.83;3.33;;;;;;;7.63;100.00;101291.75;1736312;82;26250;-74
2021/04/10 01:25:23;;;;;;;6.73;3.77;;;;;;;7.66;100.00;101298.15;1736005;82;26727;-74
2021/04/10 01:27:57;;;;;;;5.30;4.07;;;;;;;7.77;100.00;101288.92;1705709;81;26589;-74
2021/04/10 01:30:30;;;;;;;6.00;3.60;;;;;;;7.86;100.00;101283.78;1704092;84;26269;-74
2021/04/10 01:33:03;;;;;;;7.30;4.27;;;;;;;7.77;100.00;101284.23;1704063;84;26269;-74
2021/04/10 01:35:36;;;;;;;4.70;3.60;;;;;;;7.65;100.00;101284.06;1704139;84;26308;-74
2021/04/10 01:38:09;;;;;;;5.37;3.73;;;;;;;7.61;100.00;101281.52;1735987;83;26251;-74
2021/04/10 01:40:41;;;;;;;6.97;4.13;;;;;;;7.64;100.00;101286.53;1735975;82;26262;-75
2021/04/10 01:43:14;;;;;;;6.30;4.00;;;;;;;7.62;100.00;101284.01;1736038;82;26267;-74
2021/04/10 01:45:44;;;;;;;7.83;4.63;;;;;;;7.64;100.00;101285.98;1735888;82;26702;-74
2021/04/10 01:48:16;;;;;;;6.17;4.40;;;;;;;7.58;100.00;101286.16;1735948;82;26262;-74
2021/04/10 01:50:46;;;;;;;9.10;4.23;;;;;;;7.53;100.00;101295.78;1736109;82;26352;-74
2021/04/10 01:53:16;;;;;;;8.00;3.80;;;;;;;7.50;100.00;101294.88;1735914;83;26260;-74
2021/04/10 01:55:49;;;;;;;9.83;5.20;;;;;;;7.56;100.00;101289.19;1735967;83;26772;-74
2021/04/10 01:58:19;;;;;;;6.23;4.40;;;;;;;7.56;100.00;101292.50;1735954;82;26321;-74
2021/04/10 02:00:50;;;;;;;8.90;4.37;;;;;;;7.45;100.00;101292.04;1735845;82;26278;-74
2021/04/10 02:03:21;;;;;;;12.67;4.80;;;;;;;7.63;100.00;101295.36;1735809;82;26360;-74
2021/04/10 02:05:53;;;;;;;7.13;4.10;;;;;;;7.67;100.00;101292.92;1735932;83;26753;-74
2021/04/10 02:08:25;;;;;;;6.63;4.70;;;;;;;7.47;100.00;101292.09;1735866;82;26322;-74
2021/04/10 02:10:56;;;;;;;8.13;4.80;;;;;;;7.49;100.00;101293.20;1735844;82;26702;-74
2021/04/10 02:13:27;;;;;;;9.97;4.47;;;;;;;7.54;100.00;101289.97;1736011;82;26343;-74
2021/04/10 02:15:56;;;;;;;6.20;4.00;;;;;;;7.52;100.00;101292.17;1735982;82;26694;-74
2021/04/10 02:18:26;;;;;;;6.93;4.23;;;;;;;7.44;100.00;101283.48;1735863;82;26714;-74
2021/04/10 02:20:58;;;;;;;5.60;4.30;;;;;;;7.46;100.00;101286.27;1735940;82;26251;-74
2021/04/10 02:23:28;;;;;;;9.10;4.50;;;;;;;7.43;100.00;101279.88;1735913;83;26670;-74
2021/04/10 02:26:00;;;;;;;7.03;4.10;;;;;;;7.64;100.00;101282.38;1735828;82;26260;-74
2021/04/10 02:28:30;;;;;;;8.30;4.60;;;;;;;7.75;100.00;101284.18;1735831;80;26372;-75
2021/04/10 02:31:02;;;;;;;6.97;4.40;;;;;;;7.59;100.00;101287.83;1735856;83;26360;-74
2021/04/10 02:33:35;;;;;;;6.17;4.20;;;;;;;7.59;100.00;101284.52;1735860;82;26267;-74
2021/04/10 02:36:07;;;;;;;7.63;5.20;;;;;;;7.58;100.00;101283.39;1735960;82;26247;-74
2021/04/10 02:38:39;;;;;;;5.50;4.07;;;;;;;7.63;100.00;101278.77;1735916;82;26329;-74
2021/04/10 02:41:12;;;;;;;6.27;4.67;;;;;;;7.52;100.00;101277.52;1735889;82;26329;-74
2021/04/10 02:43:45;;;;;;;8.20;4.53;;;;;;;7.52;100.00;101280.28;1735837;83;26263;-74
2021/04/10 02:46:16;;;;;;;7.03;4.87;;;;;;;7.58;100.00;101273.71;1735848;82;26319;-74
2021/04/10 02:48:50;;;;;;;8.00;4.70;;;;;;;7.53;100.00;101277.81;1735883;82;26266;-74
2021/04/10 02:51:21;;;;;;;7.63;4.30;;;;;;;7.50;100.00;101274.99;1735830;83;26255;-73
2021/04/10 02:53:52;;;;;;;8.03;4.80;;;;;;;7.31;100.00;101278.61;1735994;82;26274;-73
2021/04/10 02:56:25;;;;;;;7.97;4.47;;;;;;;7.37;100.00;101271.74;1735844;82;26314;-73
2021/04/10 02:58:55;;;;;;;7.97;4.57;;;;;;;7.36;100.00;101272.29;1735819;83;26303;-74
2021/04/10 03:01:26;;;;;;;8.20;4.63;;;;;;;7.37;100.00;101267.59;1735983;82;26278;-74
2021/04/10 03:03:57;;;;;;;7.53;4.57;;;;;;;7.51;100.00;101265.62;1735968;82;26729;-74
2021/04/10 03:06:29;;;;;;;7.67;5.00;;;;;;;7.50;100.00;101268.63;1735854;82;26267;-74
2021/04/10 03:09:00;;;;;;;7.90;5.60;;;;;;;7.44;100.00;101267.73;1735803;82;26710;-74
2021/04/10 03:11:31;;;;;;;8.63;5.40;;;;;;;7.34;100.00;101260.67;1735999;83;26325;-74
2021/04/10 03:14:01;;;;;;;8.00;4.90;;;;;;;7.39;100.00;101259.91;1735820;82;26759;-74
2021/04/10 03:16:33;;;;;;;8.00;4.87;;;;;;;7.28;100.00;101265.27;1735887;83;26263;-73
2021/04/10 03:19:22;;;;;;;8.23;5.37;;;;;;;7.25;100.00;101260.80;1679364;85;33657;-73
2021/04/10 03:21:52;;;;;;;6.60;4.70;;;;;;;7.20;100.00;101265.70;1679797;85;26285;-74
2021/04/10 03:24:21;;;;;;;9.87;5.37;;;;;;;7.13;100.00;101260.91;1679812;85;26851;-73
2021/04/10 03:26:52;;;;;;;6.20;4.80;;;;;;;7.13;100.00;101259.53;1679855;85;26297;-73
2021/04/10 03:29:22;;;;;;;9.00;5.30;;;;;;;7.03;100.00;101256.59;1679757;84;26344;-74
2021/04/10 03:31:56;;;;;;;8.73;5.13;;;;;;;7.09;100.00;101257.52;1679849;85;26368;-73
2021/04/10 03:34:26;;;;;;;8.03;5.33;;;;;;;6.98;100.00;101252.91;1679722;85;26345;-73
2021/04/10 03:36:57;;;;;;;8.70;5.40;;;;;;;6.98;100.00;101255.13;1679853;85;26827;-74
2021/04/10 03:39:29;;;;;;;7.80;4.83;;;;;;;6.93;100.00;101254.23;1679952;85;26301;-74
2021/04/10 03:41:59;;;;;;;10.43;5.47;;;;;;;6.91;100.00;101250.86;1679741;85;26356;-74
2021/04/10 03:44:29;;;;;;;10.97;6.87;;;;;;;6.91;100.00;101248.95;1679776;85;26429;-74
2021/04/10 03:46:59;;;;;;;9.90;5.70;;;;;;;6.89;100.00;101248.92;1679941;85;26297;-75
2021/04/10 03:49:29;;;;;;;12.90;6.50;;;;;;;6.90;100.00;101254.70;1680443;83;26418;-74
2021/04/10 03:51:58;;;;;;;8.83;5.60;;;;;;;6.91;100.00;101253.09;1735814;82;26695;-74
2021/04/10 03:54:28;;;;;;;11.70;6.63;;;;;;;6.99;100.00;101254.59;1735796;83;26707;-74
2021/04/10 03:56:59;;;;;;;8.53;6.10;;;;;;;7.09;100.00;101250.08;1735866;82;26410;-73
2021/04/10 03:59:29;;;;;;;9.83;6.07;;;;;;;7.24;100.00;101254.44;1735861;83;26262;-73
2021/04/10 04:01:59;;;;;;;9.70;6.23;;;;;;;7.13;100.00;101251.23;1747416;81;930550;-74
2021/04/10 04:04:29;;;;;;;11.00;6.20;;;;;;;7.20;100.00;101249.67;1765095;81;26690;-74
2021/04/10 04:06:59;;;;;;;10.53;6.20;;;;;;;7.23;100.00;101251.38;1765110;81;26317;-74
2021/04/10 04:09:29;;;;;;;10.27;6.63;;;;;;;7.25;100.00;101256.12;1765122;81;26250;-73
2021/04/10 04:11:59;;;;;;;8.50;6.13;;;;;;;7.30;100.00;101251.22;1765109;81;26247;-74
2021/04/10 04:14:28;;;;;;;12.57;7.53;;;;;;;7.42;100.00;101251.09;1765257;81;26750;-73
2021/04/10 04:16:58;;;;;;;11.03;6.90;;;;;;;7.52;100.00;101250.71;1765259;81;26254;-73
2021/04/10 04:19:29;;;;;;;13.80;8.00;;;;;;;7.56;100.00;101253.80;1765095;81;26741;-74
2021/04/10 04:21:58;;;;;;;11.07;7.87;;;;;;;7.62;100.00;101254.98;1765177;81;26305;-74
2021/04/10 04:24:28;;;;;;;14.43;8.07;;;;;;;7.68;100.00;101247.05;1765085;81;26659;-73
2021/04/10 04:26:59;;;;;;;14.07;9.10;;;;;;;7.74;100.00;101255.69;1765210;81;26346;-74
2021/04/10 04:29:30;;;;;;;14.23;8.47;;;;;;;7.76;100.00;101244.38;1765030;79;26925;-74
2021/04/10 04:32:00;;;;;;;15.77;9.87;;;;;;;7.74;100.00;101254.88;1765263;81;26254;-75
2021/04/10 04:34:29;;;;;;;9.80;7.90;;;;;;;7.87;100.00;101253.11;1765111;80;26265;-74
2021/04/10 04:36:59;;;;;;;11.57;8.13;;;;;;;8.04;100.00;101255.80;1765090;81;26674;-74
2021/04/10 04:39:29;;;;;;;14.43;8.90;;;;;;;7.92;100.00;101255.92;1765078;81;26771;-74
2021/04/10 04:42:01;;;;;;;10.67;7.37;;;;;;;7.83;100.00;101261.61;1765093;81;26254;-74
2021/04/10 04:44:31;;;;;;;13.47;8.17;;;;;;;7.88;100.00;101258.91;1765172;81;26339;-74
2021/04/10 04:47:00;;;;;;;13.17;7.90;;;;;;;7.86;100.00;101259.73;1765256;81;26744;-74
2021/04/10 04:49:30;;;;;;;10.93;7.43;;;;;;;7.91;100.00;101271.41;1765119;81;26258;-73
2021/04/10 04:52:00;;;;;;;12.80;7.43;;;;;;;8.08;100.00;101264.72;1765264;81;26336;-73
2021/04/10 04:54:30;;;;;;;12.83;6.77;;;;;;;8.01;100.00;101262.67;1765153;81;26776;-76
2021/04/10 04:57:00;;;;;;;10.40;7.23;;;;;;;8.12;100.00;101267.25;1765172;81;26254;-74
2021/04/10 04:59:30;;;;;;;10.17;7.43;;;;;;;8.00;100.00;101267.91;1765171;81;26379;-74
2021/04/10 05:01:59;;;;;;;7.67;5.87;;;;;;;8.08;100.00;101276.33;1765250;81;26319;-74
2021/04/10 05:04:29;;;;;;;9.67;5.03;;;;;;;8.05;100.00;101280.97;1765258;81;26698;-73
2021/04/10 05:06:59;;;;;;;7.73;4.63;;;;;;;8.05;100.00;101279.04;1765091;81;26254;-74
2021/04/10 05:09:29;;;;;;;7.03;4.10;;;;;;;8.12;100.00;101274.17;1765209;81;26333;-74
2021/04/10 05:11:59;;;;;;;7.70;4.57;;;;;;;8.04;100.00;101270.48;1765167;81;26243;-73
2021/04/10 05:14:28;;;;;;;5.90;3.67;;;;;;;8.03;100.00;101270.18;1765098;81;26670;-73
2021/04/10 05:16:58;;;;;;;8.33;3.17;;;;;;;8.00;100.00;101270.67;1765091;81;26247;-73
2021/04/10 05:19:28;;;;;;;6.27;3.70;;;;;;;7.90;100.00;101276.09;1765132;81;26721;-73
2021/04/10 05:21:58;;;;;;;4.63;3.00;;;;;;;7.94;100.00;101277.25;1765243;81;26401;-73
2021/04/10 05:24:28;;;;;;;7.63;4.03;;;;;;;7.86;100.00;101277.71;1765153;81;26293;-73
2021/04/10 05:26:58;;;;;;;5.83;3.20;;;;;;;7.81;100.00;101274.88;1765141;81;26231;-74
2021/04/10 05:29:28;;;;;;;6.33;3.90;;;;;;;7.77;100.00;101275.09;1765179;81;26748;-74
2021/04/10 05:31:57;;;;;;;5.23;3.33;;;;;;;7.71;100.00;101281.09;1765091;78;26360;-74
2021/04/10 05:34:27;;;;;;;6.13;3.17;;;;;;;7.63;100.00;101280.16;1765231;81;26352;-73
2021/04/10 05:36:57;;;;;;;8.70;3.30;;;;;;;7.75;100.00;101278.65;1765180;81;26314;-76
2021/04/10 05:39:27;;;;;;;6.00;3.23;;;;;;;7.85;100.00;101286.25;1765048;81;26682;-73
2021/04/10 05:41:56;;;;;;;5.63;3.43;;;;;;;7.75;100.00;101284.18;1765089;81;26230;-74
2021/04/10 05:44:26;;;;;;;7.67;4.00;;;;;;;7.76;100.00;101286.70;1765068;81;26266;-73
2021/04/10 05:46:56;;;;;;;8.23;4.60;;;;;;;7.68;100.00;101287.69;1765218;81;26736;-73
2021/04/10 05:49:26;;;;;;;11.87;4.63;;;;;;;7.54;100.00;101295.50;1765271;81;26290;-74
2021/04/10 05:51:56;;;;;;;7.77;5.00;;;;;;;7.61;100.00;101299.48;1765339;81;26776;-74
2021/04/10 05:54:26;;;;;;;6.73;3.90;;;;;;;7.59;100.00;101297.51;1765174;81;26282;-74
2021/04/10 05:56:55;;;;;;;8.10;5.07;;;;;;;7.51;100.00;101297.41;1765399;81;26345;-74
2021/04/10 05:59:25;;;;;;;6.77;3.93;;;;;;;7.54;100.00;101300.19;1765217;81;26314;-74
2021/04/10 06:01:55;;;;;;;8.07;3.83;;;;;;;7.51;100.00;101307.08;1765124;81;26791;-74
2021/04/10 06:04:25;;;;;;;6.03;3.53;;;;;;;7.53;100.00;101298.55;1765229;81;27142;-73
2021/04/10 06:06:55;;;;;;;7.83;4.10;;;;;;;7.58;100.00;101304.13;1765180;81;26332;-73
2021/04/10 06:09:25;;;;;;;10.73;4.00;;;;;;;7.61;100.00;101300.33;1765189;81;26328;-73
2021/04/10 06:11:55;;;;;;;8.13;3.87;;;;;;;7.68;100.00;101305.66;1765073;81;26332;-73
2021/04/10 06:14:25;;;;;;;5.80;3.50;;;;;;;7.58;100.00;101310.48;1765151;81;26807;-74
2021/04/10 06:16:55;;;;;;;5.63;3.60;;;;;;;7.56;100.00;101302.17;1765242;81;26340;-75
2021/04/10 06:19:24;;;;;;;8.70;3.73;;;;;;;7.55;100.00;101315.70;1765039;81;26262;-74
2021/04/10 06:21:54;;;;;;;7.73;3.50;;;;;;;7.58;100.00;101317.40;1765064;81;26242;-73
2021/04/10 06:24:24;;;;;;;10.73;3.60;;;;;;;7.64;100.00;101315.02;1765074;81;26690;-74
2021/04/10 06:26:54;;;;;;;5.60;3.73;;;;;;;7.69;100.00;101317.02;1765129;81;26350;-76
2021/04/10 06:29:24;;;;;;;6.37;3.30;;;;;;;7.63;100.00;101319.41;1765165;81;26242;-74
2021/04/10 06:31:54;;;;;;;9.37;3.60;;;;;;;7.72;100.00;101315.11;1765221;78;26764;-74
2021/04/10 06:34:23;;;;;;;6.67;3.67;;;;;;;7.75;100.00;101318.20;1765211;81;26677;-74
2021/04/10 06:36:53;;;;;;;7.57;3.87;;;;;;;7.83;100.00;101317.49;1765141;81;26246;-74
2021/04/10 06:39:23;;;;;;;7.03;3.33;;;;;;;7.77;100.00;101315.20;1765058;81;26254;-73
2021/04/10 06:41:53;;;;;;;6.67;3.57;;;;;;;7.87;100.00;101319.49;1765226;81;26320;-74
2021/04/10 06:44:23;;;;;;;5.37;3.13;;;;;;;7.93;100.00;101318.99;1765141;81;26701;-74
2021/04/10 06:46:56;;;;;;;5.90;3.73;;;;;;;7.95;100.00;101312.13;1765154;81;26271;-74
2021/04/10 06:49:27;;;;;;;6.43;3.57;;;;;;;7.82;100.00;101308.35;1765065;81;26371;-75
2021/04/10 06:51:58;;;;;;;5.50;3.13;;;;;;;7.91;100.00;101313.73;1765092;81;26258;-75
2021/04/10 06:54:32;;;;;;;6.83;3.10;;;;;;;7.96;100.00;101306.86;1765090;81;26293;-75
2021/04/10 06:57:05;;;;;;;6.57;3.07;;;;;;;7.84;100.00;101315.83;1765365;81;26255;-75
2021/04/10 06:59:41;;;;;;;6.33;3.60;;;;;;;7.91;100.00;101312.89;1765183;81;26263;-75
2021/04/10 07:02:14;;;;;;;6.13;3.00;;;;;;;7.98;100.00;101310.77;1765224;81;26345;-75
2021/04/10 07:04:44;;;;;;;3.77;2.57;;;;;;;8.09;100.00;101310.63;1765184;81;26243;-74
2021/04/10 07:07:14;;;;;;;5.20;2.90;;;;;;;8.11;100.00;101315.91;1765113;81;26251;-74
2021/04/10 07:09:45;;;;;;;5.43;2.80;;;;;;;8.10;100.00;101317.00;1765065;81;26372;-74
2021/04/10 07:12:17;;;;;;;5.53;3.20;;;;;;;8.21;100.00;101314.67;1765257;81;26736;-74
2021/04/10 07:14:47;;;;;;;4.57;2.63;;;;;;;8.19;100.00;101314.08;1765367;81;26290;-74
2021/04/10 07:17:17;;;;;;;6.50;3.10;;;;;;;8.19;100.00;101315.46;1765164;81;26247;-74
2021/04/10 07:19:48;;;;;;;9.73;3.43;;;;;;;8.17;100.00;101310.75;1765121;81;26254;-74
2021/04/10 07:22:18;;;;;;;6.30;3.10;;;;;;;8.16;100.00;101317.38;1765088;81;26250;-74
2021/04/10 07:24:49;;;;;;;6.43;3.73;;;;;;;8.31;100.00;101309.81;1765014;81;26740;-74
2021/04/10 07:27:21;;;;;;;8.67;3.43;;;;;;;8.23;100.00;101313.30;1765284;81;26259;-74
2021/04/10 07:29:52;;;;;;;5.37;3.20;;;;;;;8.21;100.00;101316.86;1765102;80;26792;-73
2021/04/10 07:32:33;;;;;;;8.57;2.83;;;;;;;8.40;100.00;101313.80;1765155;80;26800;-74
2021/04/10 07:35:04;;;;;;;7.87;3.40;;;;;;;8.31;100.00;101311.20;1765104;81;26699;-74
2021/04/10 07:37:37;;;;;;;8.23;3.33;;;;;;;8.38;100.00;101311.85;1765126;81;26262;-77
2021/04/10 07:40:10;;;;;;;7.87;3.50;;;;;;;8.30;100.00;101319.23;1765144;81;26721;-76
2021/04/10 07:42:42;;;;;;;8.80;3.33;;;;;;;8.45;100.00;101316.08;1765060;81;26693;-75
2021/04/10 07:45:28;;;;;;;7.87;3.40;;;;;;;8.38;100.00;101306.31;1765233;81;26775;-77
2021/04/10 07:48:04;;;;;;;5.40;3.40;;;;;;;8.46;100.00;101311.38;1765159;81;26243;-77
2021/04/10 07:50:35;;;;;;;7.87;3.73;;;;;;;8.41;100.00;101308.55;1765041;81;26300;-77
2021/04/10 07:53:22;;;;;;;7.13;3.23;;;;;;;8.56;100.00;101304.55;1765046;81;26254;-77
2021/04/10 07:55:54;;;;;;;8.83;4.27;;;;;;;8.59;100.00;101304.05;1765128;81;26263;-76
2021/04/10 07:58:32;;;;;;;6.57;3.30;;;;;;;8.48;100.00;101300.88;1765139;81;26750;-77
2021/04/10 08:01:04;;;;;;;7.23;3.43;;;;;;;8.52;100.00;101297.33;1765030;81;26247;-77
2021/04/10 08:03:36;;;;;;;6.17;3.53;;;;;;;8.58;100.00;101296.30;1765068;81;26349;-78
2021/04/10 08:06:17;;;;;;;8.27;3.80;;;;;;;8.66;100.00;101296.36;1765107;81;26409;-77
2021/04/10 08:08:52;;;;;;;8.17;3.70;;;;;;;8.80;100.00;101300.94;1765022;81;26733;-78
2021/04/10 08:11:33;;;;;;;12.00;3.53;;;;;;;8.64;100.00;101299.38;1765155;81;26254;-77
2021/04/10 08:14:06;;;;;;;6.37;3.10;;;;;;;8.65;100.00;101296.91;1765209;81;26327;-77
2021/04/10 08:16:41;;;;;;;8.63;3.57;;;;;;;8.52;100.00;101293.72;1765100;81;26251;-78
2021/04/10 08:19:11;;;;;;;7.33;3.33;;;;;;;8.52;100.00;101297.33;1765116;81;26677;-77
2021/04/10 08:21:52;;;;;;;8.60;3.43;;;;;;;8.52;100.00;101293.17;1765059;81;26375;-77
2021/04/10 08:24:26;;;;;;;4.83;3.17;;;;;;;8.55;100.00;101291.29;1765040;81;26736;-78
2021/04/10 08:26:59;;;;;;;6.73;3.50;;;;;;;8.37;100.00;101293.02;1765231;81;26255;-77
2021/04/10 08:29:30;;;;;;;8.00;3.20;;;;;;;8.40;100.00;101286.95;1764990;81;26254;-77
2021/04/10 08:32:02;;;;;;;7.33;3.80;;;;;;;8.53;100.00;101289.86;1765247;81;26251;-77
2021/04/10 08:34:33;;;;;;;5.30;3.00;;;;;;;8.64;100.00;101295.81;1765032;79;26372;-77
2021/04/10 08:37:05;;;;;;;6.83;3.40;;;;;;;8.65;100.00;101291.91;1764972;81;26266;-77
2021/04/10 08:39:37;;;;;;;7.10;3.47;;;;;;;8.66;100.00;101293.05;1765041;81;26259;-77
2021/04/10 08:42:09;;;;;;;7.13;3.10;;;;;;;8.72;100.00;101297.26;1765175;81;26266;-77
2021/04/10 08:44:40;;;;;;;6.30;3.00;;;;;;;8.55;100.00;101294.06;1765191;81;26266;-77
2021/04/10 08:47:12;;;;;;;7.70;2.90;;;;;;;8.50;100.00;101295.38;1765237;81;26334;-77
2021/04/10 08:49:45;;;;;;;6.77;3.27;;;;;;;8.56;100.00;101292.09;1765215;81;26804;-78
2021/04/10 08:52:17;;;;;;;8.40;3.33;;;;;;;8.76;100.00;101291.48;1765282;81;26246;-78
2021/04/10 08:54:50;;;;;;;7.03;3.03;;;;;;;8.80;100.00;101295.39;1765220;81;26752;-77
2021/04/10 08:57:19;;;;;;;7.40;3.37;;;;;;;8.94;100.00;101284.17;1765222;81;26654;-78
2021/04/10 08:59:50;;;;;;;6.37;3.13;;;;;;;8.85;100.00;101287.14;1765189;81;26255;-78
2021/04/10 09:02:22;;;;;;;10.27;3.63;;;;;;;9.01;100.00;101293.94;1765075;81;26286;-78
2021/04/10 09:05:11;;;;;;;5.20;2.80;;;;;;;9.10;100.00;101286.81;1765112;81;26246;-78
2021/04/10 09:08:13;;;;;;;5.40;2.77;;;;;;;9.17;100.00;101294.05;1765262;81;26249;-77
2021/04/10 09:10:47;;;;;;;4.50;2.70;;;;;;;9.44;100.00;101289.27;1765438;81;26249;-77
2021/04/10 09:13:28;;;;;;;3.80;2.63;;;;;;;9.16;100.00;101293.78;1765137;81;26634;-78
2021/04/10 09:16:23;;;;;;;6.73;2.47;;;;;;;9.27;100.00;101299.67;1765200;81;26783;-76
2021/04/10 09:18:54;;;;;;;4.80;2.97;;;;;;;9.47;100.00;101292.88;1765108;81;26250;-75
2021/04/10 09:21:40;;;;;;;4.37;3.00;;;;;;;9.52;100.00;101285.98;1765197;81;26266;-75
2021/04/10 09:24:25;;;;;;;7.60;2.60;;;;;;;9.48;100.00;101285.69;1765365;81;26230;-75
2021/04/10 09:27:03;;;;;;;7.33;2.80;;;;;;;9.65;100.00;101290.22;1765363;81;26419;-75
2021/04/10 09:29:45;;;;;;;9.27;3.13;;;;;;;9.56;100.00;101301.83;1765120;81;26250;-75
2021/04/10 09:32:17;;;;;;;6.17;2.43;;;;;;;9.52;100.00;101299.86;1765092;81;26259;-75
2021/04/10 09:34:58;;;;;;;7.07;2.93;;;;;;;9.38;100.00;101302.25;1765188;79;26367;-75
2021/04/10 09:38:02;;;;;;;4.73;3.33;;;;;;;9.43;100.00;101299.52;1765080;81;26286;-78
2021/04/10 09:40:50;;;;;;;7.07;3.50;;;;;;;9.38;100.00;101302.80;1765169;81;26735;-75
2021/04/10 09:43:22;;;;;;;6.23;2.70;;;;;;;9.33;100.00;101301.37;1765299;81;26673;-73
2021/04/10 09:45:53;;;;;;;5.83;2.80;;;;;;;9.19;100.00;101295.47;1765171;81;26306;-74
2021/04/10 09:48:25;;;;;;;7.50;3.40;;;;;;;9.21;100.00;101291.02;1765200;81;26705;-75
2021/04/10 09:51:20;;;;;;;6.73;3.00;;;;;;;9.28;100.00;101295.27;1765452;81;26246;-74
2021/04/10 09:53:51;;;;;;;8.40;2.90;;;;;;;9.30;100.00;101293.05;1762876;81;26406;-75
2021/04/10 09:56:22;;;;;;;8.00;2.80;;;;;;;9.27;100.00;101294.97;1765285;81;26346;-75
2021/04/10 09:58:56;;;;;;;5.87;2.70;;;;;;;9.28;100.00;101291.11;1765251;81;26239;-78
2021/04/10 10:01:31;;;;;;;7.00;2.87;;;;;;;9.25;100.00;101287.45;1765143;81;26322;-77
2021/04/10 10:04:00;;;;;;;8.27;2.80;;;;;;;9.31;100.00;101292.50;1765340;81;26337;-76
2021/04/10 10:06:34;;;;;;;6.73;3.20;;;;;;;9.24;100.00;101292.70;1765243;81;26235;-75
2021/04/10 10:09:21;;;;;;;9.20;3.13;;;;;;;9.31;100.00;101293.34;1765288;81;26242;-75
2021/04/10 10:11:55;;;;;;;7.97;3.20;;;;;;;9.18;100.00;101295.17;1765235;81;26267;-75
2021/04/10 10:14:26;;;;;;;5.60;2.97;;;;;;;9.31;100.00;101290.56;1765248;81;26255;-75
2021/04/10 10:16:57;;;;;;;4.93;3.17;;;;;;;9.35;100.00;101292.25;1765231;81;26760;-75
2021/04/10 10:19:27;;;;;;;9.57;3.10;;;;;;;9.28;100.00;101287.50;1765451;81;26250;-76
2021/04/10 10:21:57;;;;;;;7.10;2.50;;;;;;;9.27;100.00;101281.66;1765230;81;26313;-76
2021/04/10 10:24:26;;;;;;;8.90;3.80;;;;;;;9.20;100.00;101288.80;1765240;81;26238;-75
2021/04/10 10:26:57;;;;;;;5.87;2.80;;;;;;;9.14;100.00;101278.80;1765180;81;26235;-77
2021/04/10 10:29:26;;;;;;;8.77;2.80;;;;;;;9.19;100.00;101289.09;1765383;81;26323;-75
2021/04/10 10:31:57;;;;;;;6.57;2.67;;;;;;;9.25;100.00;101284.69;1765243;81;26314;-79
2021/04/10 10:34:28;;;;;;;5.13;2.87;;;;;;;9.20;100.00;101283.26;1765178;78;26757;-75
2021/04/10 10:36:58;;;;;;;6.33;2.97;;;;;;;9.17;100.00;101284.34;1765264;81;26277;-76
2021/04/10 10:39:30;;;;;;;6.70;3.00;;;;;;;9.13;100.00;101282.11;1765222;81;26683;-75
2021/04/10 10:42:02;;;;;;;5.37;2.63;;;;;;;9.15;100.00;101283.24;1765263;81;26757;-76
2021/04/10 10:44:34;;;;;;;7.03;3.23;;;;;;;9.14;100.00;101285.17;1765154;81;26729;-76
2021/04/10 10:47:04;;;;;;;4.70;2.50;;;;;;;9.19;100.00;101278.84;1765450;81;26313;-75
2021/04/10 10:49:35;;;;;;;9.13;2.80;;;;;;;9.21;100.00;101275.78;1765185;81;26689;-77
2021/04/10 10:52:05;;;;;;;5.83;2.70;;;;;;;9.21;100.00;101273.01;1765099;81;26732;-77
2021/04/10 10:54:37;;;;;;;7.27;2.77;;;;;;;9.23;100.00;101267.50;1765200;81;26313;-77
2021/04/10 10:57:12;;;;;;;5.53;2.70;;;;;;;9.28;100.00;101264.77;1765338;81;26254;-77
2021/04/10 10:59:41;;;;;;;5.83;2.80;;;;;;;9.17;100.00;101267.17;1765224;81;26246;-77
2021/04/10 11:02:13;;;;;;;4.43;2.60;;;;;;;9.28;100.00;101253.69;1765305;81;26274;-77
2021/04/10 11:04:44;;;;;;;5.20;2.50;;;;;;;9.30;100.00;101257.55;1765483;81;26313;-76
2021/04/10 11:07:15;;;;;;;5.53;2.53;;;;;;;9.30;100.00;101257.01;1765261;81;26258;-76
2021/04/10 11:09:45;;;;;;;6.03;2.70;;;;;;;9.21;100.00;101257.77;1765130;81;26337;-76
2021/04/10 11:12:17;;;;;;;5.80;2.10;;;;;;;9.17;100.00;101255.24;1765150;81;26247;-76
2021/04/10 11:14:47;;;;;;;4.97;3.00;;;;;;;9.10;100.00;101262.41;1765164;81;26325;-76
2021/04/10 11:17:31;;;;;;;5.20;2.33;;;;;;;9.05;100.00;101256.28;1765344;81;26317;-76
2021/04/10 11:20:03;;;;;;;5.67;3.00;;;;;;;9.12;100.00;101259.64;1765340;81;26356;-76
2021/04/10 11:22:33;;;;;;;7.40;2.50;;;;;;;9.28;100.00;101257.84;1765198;81;26370;-77
2021/04/10 11:25:04;;;;;;;4.87;2.80;;;;;;;9.29;100.00;101253.11;1765145;81;26254;-76
2021/04/10 11:27:37;;;;;;;5.17;2.70;;;;;;;9.25;100.00;101247.27;1765324;81;26336;-76
2021/04/10 11:30:11;;;;;;;5.37;2.60;;;;;;;9.33;100.00;101247.31;1765080;81;26254;-76
2021/04/10 11:32:43;;;;;;;4.33;2.50;;;;;;;9.38;100.00;101241.80;1765185;81;26290;-77
2021/04/10 11:35:18;;;;;;;4.80;1.93;;;;;;;9.26;100.00;101247.55;1765102;79;26313;-76
2021/04/10 11:37:51;;;;;;;4.13;2.43;;;;;;;9.23;100.00;101250.87;1765189;81;26238;-77
2021/04/10 11:40:30;;;;;;;5.27;2.43;;;;;;;9.40;100.00;101245.16;1765100;81;26389;-77
2021/04/10 11:43:01;;;;;;;4.97;1.60;;;;;;;9.59;100.00;101242.20;1765011;81;26377;-75
2021/04/10 11:45:34;;;;;;;2.53;1.53;;;;;;;9.65;100.00;101238.36;1765132;81;26325;-76
2021/04/10 11:48:15;;;;;;;5.67;1.70;;;;;;;9.64;100.00;101242.78;1765119;81;26243;-79